sensor_id;sensor_type;location;lat;lon;timestamp;temperature;humidity
7129;DHT22;3606;52.930;8.644;2022-12-29T00:02:08;9.80;99.90
7129;DHT22;3606;52.930;8.644;2022-12-29T00:04:34;9.80;99.90
7129;DHT22;3606;52.930;8.644;2022-12-29T00:06:59;9.80;99.90
7129;DHT22;3606;52.930;8.644;2022-12-29T00:09:26;9.90;99.90
7129;DHT22;3606;52.930;8.644;2022-12-29T00:11:52;9.90;99.90
7129;DHT22;3606;52.930;8.644;2022-12-29T00:14:18;9.80;99.90
7129;DHT22;3606;52.930;8.644;2022-12-29T00:17:02;9.90;99.90
7129;DHT22;3606;52.930;8.644;2022-12-29T00:19:28;9.90;99.90
7129;DHT22;3606;52.930;8.644;2022-12-29T00:22:13;9.90;99.90
7129;DHT22;3606;52.930;8.644;2022-12-29T00:24:58;10.00;99.90
7129;DHT22;3606;52.930;8.644;2022-12-29T00:27:30;10.00;99.90
7129;DHT22;3606;52.930;8.644;2022-12-29T00:30:17;10.00;99.90
7129;DHT22;3606;52.930;8.644;2022-12-29T00:33:16;10.00;99.90
7129;DHT22;3606;52.930;8.644;2022-12-29T00:36:18;10.00;99.90
7129;DHT22;3606;52.930;8.644;2022-12-29T00:38:52;10.10;99.90
7129;DHT22;3606;52.930;8.644;2022-12-29T00:41:38;10.10;99.90
7129;DHT22;3606;52.930;8.644;2022-12-29T00:44:22;10.10;99.90
7129;DHT22;3606;52.930;8.644;2022-12-29T00:46:48;10.10;99.90
7129;DHT22;3606;52.930;8.644;2022-12-29T00:49:14;10.10;99.90
7129;DHT22;3606;52.930;8.644;2022-12-29T00:51:57;10.10;99.90
7129;DHT22;3606;52.930;8.644;2022-12-29T00:54:23;10.10;99.90
7129;DHT22;3606;52.930;8.644;2022-12-29T00:56:50;10.20;99.90
7129;DHT22;3606;52.930;8.644;2022-12-29T00:59:16;10.30;99.90
7129;DHT22;3606;52.930;8.644;2022-12-29T01:01:42;10.20;99.90
7129;DHT22;3606;52.930;8.644;2022-12-29T01:04:08;10.20;99.90
7129;DHT22;3606;52.930;8.644;2022-12-29T01:06:36;10.20;99.90
7129;DHT22;3606;52.930;8.644;2022-12-29T01:09:02;10.30;99.90
7129;DHT22;3606;52.930;8.644;2022-12-29T01:11:46;10.20;99.90
7129;DHT22;3606;52.930;8.644;2022-12-29T01:14:12;10.20;99.90
7129;DHT22;3606;52.930;8.644;2022-12-29T01:16:37;10.20;99.90
7129;DHT22;3606;52.930;8.644;2022-12-29T01:19:03;10.20;99.90
7129;DHT22;3606;52.930;8.644;2022-12-29T01:21:30;10.10;99.90
7129;DHT22;3606;52.930;8.644;2022-12-29T01:23:55;10.10;99.90
7129;DHT22;3606;52.930;8.644;2022-12-29T01:26:21;10.10;99.90
7129;DHT22;3606;52.930;8.644;2022-12-29T01:28:47;10.20;99.90
7129;DHT22;3606;52.930;8.644;2022-12-29T01:31:14;10.20;99.90
7129;DHT22;3606;52.930;8.644;2022-12-29T01:33:40;10.20;99.90
7129;DHT22;3606;52.930;8.644;2022-12-29T01:36:08;10.30;99.90
7129;DHT22;3606;52.930;8.644;2022-12-29T01:38:35;10.30;99.90
7129;DHT22;3606;52.930;8.644;2022-12-29T01:41:01;10.30;99.90
7129;DHT22;3606;52.930;8.644;2022-12-29T01:48:47;10.50;99.90
7129;DHT22;3606;52.930;8.644;2022-12-29T01:51:15;10.50;99.90
7129;DHT22;3606;52.930;8.644;2022-12-29T01:53:41;10.50;99.90
7129;DHT22;3606;52.930;8.644;2022-12-29T01:56:10;10.50;99.90
7129;DHT22;3606;52.930;8.644;2022-12-29T01:58:40;10.60;99.90
7129;DHT22;3606;52.930;8.644;2022-12-29T02:01:07;10.50;99.90
7129;DHT22;3606;52.930;8.644;2022-12-29T02:03:34;10.60;99.90
7129;DHT22;3606;52.930;8.644;2022-12-29T02:06:11;10.50;99.90
7129;DHT22;3606;52.930;8.644;2022-12-29T02:08:39;10.60;99.90
7129;DHT22;3606;52.930;8.644;2022-12-29T02:11:05;10.50;99.90
7129;DHT22;3606;52.930;8.644;2022-12-29T02:13:31;10.60;99.90
7129;DHT22;3606;52.930;8.644;2022-12-29T02:16:14;10.60;99.90
7129;DHT22;3606;52.930;8.644;2022-12-29T02:19:33;10.60;99.90
7129;DHT22;3606;52.930;8.644;2022-12-29T02:22:29;10.70;99.90
7129;DHT22;3606;52.930;8.644;2022-12-29T02:27:58;10.60;99.90
7129;DHT22;3606;52.930;8.644;2022-12-29T02:30:53;10.60;99.90
7129;DHT22;3606;52.930;8.644;2022-12-29T02:33:33;10.70;99.90
7129;DHT22;3606;52.930;8.644;2022-12-29T02:36:10;10.70;99.80
7129;DHT22;3606;52.930;8.644;2022-12-29T02:41:14;10.80;99.90
7129;DHT22;3606;52.930;8.644;2022-12-29T02:43:54;10.80;93.60
7129;DHT22;3606;52.930;8.644;2022-12-29T02:46:36;10.80;80.80
7129;DHT22;3606;52.930;8.644;2022-12-29T02:54:06;10.80;81.10
7129;DHT22;3606;52.930;8.644;2022-12-29T02:56:51;10.80;77.70
7129;DHT22;3606;52.930;8.644;2022-12-29T02:59:17;10.90;60.40
7129;DHT22;3606;52.930;8.644;2022-12-29T03:02:19;10.90;60.00
7129;DHT22;3606;52.930;8.644;2022-12-29T03:11:07;10.80;63.90
7129;DHT22;3606;52.930;8.644;2022-12-29T03:17:14;10.90;42.50
7129;DHT22;3606;52.930;8.644;2022-12-29T03:19:49;10.90;50.80
7129;DHT22;3606;52.930;8.644;2022-12-29T03:22:21;10.80;79.80
7129;DHT22;3606;52.930;8.644;2022-12-29T03:25:08;10.80;97.70
7129;DHT22;3606;52.930;8.644;2022-12-29T03:27:40;10.80;99.90
7129;DHT22;3606;52.930;8.644;2022-12-29T03:30:07;10.80;99.90
7129;DHT22;3606;52.930;8.644;2022-12-29T03:32:50;10.80;99.90
7129;DHT22;3606;52.930;8.644;2022-12-29T03:35:20;10.80;99.90
7129;DHT22;3606;52.930;8.644;2022-12-29T03:37:58;10.80;99.90
7129;DHT22;3606;52.930;8.644;2022-12-29T03:40:26;10.70;99.90
7129;DHT22;3606;52.930;8.644;2022-12-29T03:42:53;10.60;99.90
7129;DHT22;3606;52.930;8.644;2022-12-29T03:45:19;10.70;99.90
7129;DHT22;3606;52.930;8.644;2022-12-29T03:47:45;10.60;99.90
7129;DHT22;3606;52.930;8.644;2022-12-29T03:50:14;10.60;99.90
7129;DHT22;3606;52.930;8.644;2022-12-29T03:52:39;10.60;99.90
7129;DHT22;3606;52.930;8.644;2022-12-29T03:55:05;10.60;99.90
7129;DHT22;3606;52.930;8.644;2022-12-29T03:57:31;10.60;99.90
7129;DHT22;3606;52.930;8.644;2022-12-29T03:59:57;10.60;99.90
7129;DHT22;3606;52.930;8.644;2022-12-29T04:02:22;10.60;99.90
7129;DHT22;3606;52.930;8.644;2022-12-29T04:04:49;10.60;99.90
7129;DHT22;3606;52.930;8.644;2022-12-29T04:07:15;10.50;99.90
7129;DHT22;3606;52.930;8.644;2022-12-29T04:09:40;10.50;99.90
7129;DHT22;3606;52.930;8.644;2022-12-29T04:12:06;10.50;99.90
7129;DHT22;3606;52.930;8.644;2022-12-29T04:14:31;10.50;99.90
7129;DHT22;3606;52.930;8.644;2022-12-29T04:16:57;10.50;99.90
7129;DHT22;3606;52.930;8.644;2022-12-29T04:19:23;10.50;99.90
7129;DHT22;3606;52.930;8.644;2022-12-29T04:21:48;10.50;99.90
7129;DHT22;3606;52.930;8.644;2022-12-29T04:24:14;10.50;99.90
7129;DHT22;3606;52.930;8.644;2022-12-29T04:26:40;10.50;99.90
7129;DHT22;3606;52.930;8.644;2022-12-29T04:29:05;10.50;99.90
7129;DHT22;3606;52.930;8.644;2022-12-29T04:31:31;10.50;99.90
7129;DHT22;3606;52.930;8.644;2022-12-29T04:33:57;10.60;99.90
7129;DHT22;3606;52.930;8.644;2022-12-29T04:36:23;10.50;99.90
7129;DHT22;3606;52.930;8.644;2022-12-29T04:38:49;10.60;99.90
7129;DHT22;3606;52.930;8.644;2022-12-29T04:41:14;10.50;99.90
7129;DHT22;3606;52.930;8.644;2022-12-29T04:43:40;10.60;99.90
7129;DHT22;3606;52.930;8.644;2022-12-29T04:46:06;10.50;99.90
7129;DHT22;3606;52.930;8.644;2022-12-29T04:48:31;10.60;99.90
7129;DHT22;3606;52.930;8.644;2022-12-29T04:50:57;10.50;99.90
7129;DHT22;3606;52.930;8.644;2022-12-29T04:53:22;10.60;99.90
7129;DHT22;3606;52.930;8.644;2022-12-29T04:55:50;10.50;99.90
7129;DHT22;3606;52.930;8.644;2022-12-29T04:58:16;10.50;99.90
7129;DHT22;3606;52.930;8.644;2022-12-29T05:00:42;10.50;99.90
7129;DHT22;3606;52.930;8.644;2022-12-29T05:03:07;10.50;99.90
7129;DHT22;3606;52.930;8.644;2022-12-29T05:05:33;10.50;99.90
7129;DHT22;3606;52.930;8.644;2022-12-29T05:07:58;10.40;99.90
7129;DHT22;3606;52.930;8.644;2022-12-29T05:10:24;10.40;99.90
7129;DHT22;3606;52.930;8.644;2022-12-29T05:12:50;10.50;99.90
7129;DHT22;3606;52.930;8.644;2022-12-29T05:15:15;10.50;99.90
7129;DHT22;3606;52.930;8.644;2022-12-29T05:17:41;10.40;99.90
7129;DHT22;3606;52.930;8.644;2022-12-29T05:20:07;10.40;99.90
7129;DHT22;3606;52.930;8.644;2022-12-29T05:22:33;10.50;99.90
7129;DHT22;3606;52.930;8.644;2022-12-29T05:24:58;10.50;99.90
7129;DHT22;3606;52.930;8.644;2022-12-29T05:27:24;10.50;99.90
7129;DHT22;3606;52.930;8.644;2022-12-29T05:29:49;10.40;99.90
7129;DHT22;3606;52.930;8.644;2022-12-29T05:32:15;10.40;99.90
7129;DHT22;3606;52.930;8.644;2022-12-29T05:34:41;10.40;99.90
7129;DHT22;3606;52.930;8.644;2022-12-29T05:37:06;10.40;99.90
7129;DHT22;3606;52.930;8.644;2022-12-29T05:39:32;10.40;99.90
7129;DHT22;3606;52.930;8.644;2022-12-29T05:41:57;10.40;99.90
7129;DHT22;3606;52.930;8.644;2022-12-29T05:44:23;10.40;99.90
7129;DHT22;3606;52.930;8.644;2022-12-29T05:46:49;10.40;99.90
7129;DHT22;3606;52.930;8.644;2022-12-29T05:49:15;10.50;99.90
7129;DHT22;3606;52.930;8.644;2022-12-29T05:51:41;10.40;99.90
7129;DHT22;3606;52.930;8.644;2022-12-29T05:54:07;10.40;99.90
7129;DHT22;3606;52.930;8.644;2022-12-29T05:56:32;10.50;99.90
7129;DHT22;3606;52.930;8.644;2022-12-29T05:58:58;10.50;99.90
7129;DHT22;3606;52.930;8.644;2022-12-29T06:01:24;10.50;99.90
7129;DHT22;3606;52.930;8.644;2022-12-29T06:03:49;10.50;99.90
7129;DHT22;3606;52.930;8.644;2022-12-29T06:06:15;10.40;99.90
7129;DHT22;3606;52.930;8.644;2022-12-29T06:08:41;10.40;99.90
7129;DHT22;3606;52.930;8.644;2022-12-29T06:11:06;10.30;99.90
7129;DHT22;3606;52.930;8.644;2022-12-29T06:13:32;10.40;99.90
7129;DHT22;3606;52.930;8.644;2022-12-29T06:15:58;10.40;99.90
7129;DHT22;3606;52.930;8.644;2022-12-29T06:18:23;10.40;99.90
7129;DHT22;3606;52.930;8.644;2022-12-29T06:20:49;10.40;99.90
7129;DHT22;3606;52.930;8.644;2022-12-29T06:23:14;10.40;99.90
7129;DHT22;3606;52.930;8.644;2022-12-29T06:25:40;10.30;99.90
7129;DHT22;3606;52.930;8.644;2022-12-29T06:28:06;10.30;99.90
7129;DHT22;3606;52.930;8.644;2022-12-29T06:30:32;10.30;99.90
7129;DHT22;3606;52.930;8.644;2022-12-29T06:32:58;10.30;99.90
7129;DHT22;3606;52.930;8.644;2022-12-29T06:35:24;10.40;99.90
7129;DHT22;3606;52.930;8.644;2022-12-29T06:37:50;10.40;99.90
7129;DHT22;3606;52.930;8.644;2022-12-29T06:40:17;10.40;99.90
7129;DHT22;3606;52.930;8.644;2022-12-29T06:42:42;10.30;99.90
7129;DHT22;3606;52.930;8.644;2022-12-29T06:45:08;10.40;99.90
7129;DHT22;3606;52.930;8.644;2022-12-29T06:47:35;10.40;99.90
7129;DHT22;3606;52.930;8.644;2022-12-29T06:50:01;10.40;99.90
7129;DHT22;3606;52.930;8.644;2022-12-29T06:52:26;10.40;99.90
7129;DHT22;3606;52.930;8.644;2022-12-29T06:54:54;10.20;99.90
7129;DHT22;3606;52.930;8.644;2022-12-29T06:57:20;10.20;99.90
7129;DHT22;3606;52.930;8.644;2022-12-29T06:59:45;10.20;99.90
7129;DHT22;3606;52.930;8.644;2022-12-29T07:02:11;10.10;99.90
7129;DHT22;3606;52.930;8.644;2022-12-29T07:04:38;10.10;99.90
7129;DHT22;3606;52.930;8.644;2022-12-29T07:07:04;10.10;99.90
7129;DHT22;3606;52.930;8.644;2022-12-29T07:09:29;10.10;99.90
7129;DHT22;3606;52.930;8.644;2022-12-29T07:11:55;10.00;99.90
7129;DHT22;3606;52.930;8.644;2022-12-29T07:14:20;9.90;99.90
7129;DHT22;3606;52.930;8.644;2022-12-29T07:16:46;9.90;99.90
7129;DHT22;3606;52.930;8.644;2022-12-29T07:19:11;9.80;99.90
7129;DHT22;3606;52.930;8.644;2022-12-29T07:21:37;9.80;99.90
7129;DHT22;3606;52.930;8.644;2022-12-29T07:24:03;9.80;99.90
7129;DHT22;3606;52.930;8.644;2022-12-29T07:26:29;9.80;99.90
7129;DHT22;3606;52.930;8.644;2022-12-29T07:28:54;9.80;99.90
7129;DHT22;3606;52.930;8.644;2022-12-29T07:31:22;9.70;99.90
7129;DHT22;3606;52.930;8.644;2022-12-29T07:33:48;9.80;99.90
7129;DHT22;3606;52.930;8.644;2022-12-29T07:36:15;9.80;99.90
7129;DHT22;3606;52.930;8.644;2022-12-29T07:38:41;9.80;99.90
7129;DHT22;3606;52.930;8.644;2022-12-29T07:41:07;9.80;99.90
7129;DHT22;3606;52.930;8.644;2022-12-29T07:43:33;9.80;99.90
7129;DHT22;3606;52.930;8.644;2022-12-29T07:45:59;9.80;99.90
7129;DHT22;3606;52.930;8.644;2022-12-29T07:48:25;9.80;99.90
7129;DHT22;3606;52.930;8.644;2022-12-29T07:50:51;9.70;99.90
7129;DHT22;3606;52.930;8.644;2022-12-29T07:53:17;9.60;99.90
7129;DHT22;3606;52.930;8.644;2022-12-29T07:55:43;9.60;99.90
7129;DHT22;3606;52.930;8.644;2022-12-29T07:58:08;9.60;99.90
7129;DHT22;3606;52.930;8.644;2022-12-29T08:00:34;9.50;99.90
7129;DHT22;3606;52.930;8.644;2022-12-29T08:02:59;9.40;99.90
7129;DHT22;3606;52.930;8.644;2022-12-29T08:05:25;9.40;99.90
7129;DHT22;3606;52.930;8.644;2022-12-29T08:07:51;9.30;99.90
7129;DHT22;3606;52.930;8.644;2022-12-29T08:10:16;9.30;99.90
7129;DHT22;3606;52.930;8.644;2022-12-29T08:12:42;9.20;99.90
7129;DHT22;3606;52.930;8.644;2022-12-29T08:15:10;9.30;99.90
7129;DHT22;3606;52.930;8.644;2022-12-29T08:17:37;9.60;99.90
7129;DHT22;3606;52.930;8.644;2022-12-29T08:20:04;9.70;99.90
7129;DHT22;3606;52.930;8.644;2022-12-29T08:22:30;9.70;99.90
7129;DHT22;3606;52.930;8.644;2022-12-29T08:24:55;9.60;99.90
7129;DHT22;3606;52.930;8.644;2022-12-29T08:27:21;9.60;97.70
7129;DHT22;3606;52.930;8.644;2022-12-29T08:29:47;9.50;99.90
7129;DHT22;3606;52.930;8.644;2022-12-29T08:32:13;9.50;99.90
7129;DHT22;3606;52.930;8.644;2022-12-29T08:34:38;9.50;99.90
7129;DHT22;3606;52.930;8.644;2022-12-29T08:37:04;9.50;99.90
7129;DHT22;3606;52.930;8.644;2022-12-29T08:39:29;9.70;99.90
7129;DHT22;3606;52.930;8.644;2022-12-29T08:41:55;10.00;77.80
7129;DHT22;3606;52.930;8.644;2022-12-29T08:44:21;10.40;1.00
7129;DHT22;3606;52.930;8.644;2022-12-29T08:46:47;10.80;1.00
7129;DHT22;3606;52.930;8.644;2022-12-29T08:49:12;10.90;1.00
7129;DHT22;3606;52.930;8.644;2022-12-29T08:51:38;10.60;1.00
7129;DHT22;3606;52.930;8.644;2022-12-29T08:54:04;10.20;1.00
7129;DHT22;3606;52.930;8.644;2022-12-29T08:56:30;10.00;1.00
7129;DHT22;3606;52.930;8.644;2022-12-29T08:58:55;9.90;1.00
7129;DHT22;3606;52.930;8.644;2022-12-29T09:01:21;9.90;1.00
7129;DHT22;3606;52.930;8.644;2022-12-29T09:03:47;10.00;1.00
7129;DHT22;3606;52.930;8.644;2022-12-29T09:06:15;10.20;1.00
7129;DHT22;3606;52.930;8.644;2022-12-29T09:08:40;10.30;1.00
7129;DHT22;3606;52.930;8.644;2022-12-29T09:11:08;10.30;1.00
7129;DHT22;3606;52.930;8.644;2022-12-29T09:13:34;10.30;1.00
7129;DHT22;3606;52.930;8.644;2022-12-29T09:16:00;10.30;1.00
7129;DHT22;3606;52.930;8.644;2022-12-29T09:18:26;10.30;1.00
7129;DHT22;3606;52.930;8.644;2022-12-29T09:21:03;10.30;1.00
7129;DHT22;3606;52.930;8.644;2022-12-29T09:23:29;10.30;1.00
7129;DHT22;3606;52.930;8.644;2022-12-29T09:25:55;10.40;1.00
7129;DHT22;3606;52.930;8.644;2022-12-29T09:28:21;10.40;1.00
7129;DHT22;3606;52.930;8.644;2022-12-29T09:30:47;10.40;1.00
7129;DHT22;3606;52.930;8.644;2022-12-29T09:33:13;10.50;99.90
7129;DHT22;3606;52.930;8.644;2022-12-29T09:35:43;10.70;99.90
7129;DHT22;3606;52.930;8.644;2022-12-29T09:38:09;10.90;99.90
7129;DHT22;3606;52.930;8.644;2022-12-29T09:40:35;10.90;99.90
7129;DHT22;3606;52.930;8.644;2022-12-29T09:45:47;10.50;99.90
7129;DHT22;3606;52.930;8.644;2022-12-29T09:48:26;10.30;1.00
7129;DHT22;3606;52.930;8.644;2022-12-29T09:50:58;10.00;1.00
7129;DHT22;3606;52.930;8.644;2022-12-29T09:53:43;9.90;1.00
7129;DHT22;3606;52.930;8.644;2022-12-29T09:56:17;9.60;1.00
7129;DHT22;3606;52.930;8.644;2022-12-29T10:01:41;9.40;92.30
7129;DHT22;3606;52.930;8.644;2022-12-29T10:04:08;9.40;99.90
7129;DHT22;3606;52.930;8.644;2022-12-29T10:09:30;9.10;1.00
7129;DHT22;3606;52.930;8.644;2022-12-29T10:15:04;8.90;4.00
7129;DHT22;3606;52.930;8.644;2022-12-29T10:17:44;8.80;64.50
7129;DHT22;3606;52.930;8.644;2022-12-29T10:20:28;8.90;99.90
7129;DHT22;3606;52.930;8.644;2022-12-29T10:25:55;9.50;99.90
7129;DHT22;3606;52.930;8.644;2022-12-29T10:30:59;10.30;99.90
7129;DHT22;3606;52.930;8.644;2022-12-29T10:33:38;10.80;1.00
7129;DHT22;3606;52.930;8.644;2022-12-29T10:36:14;10.70;1.00
7129;DHT22;3606;52.930;8.644;2022-12-29T10:38:48;10.50;1.00
7129;DHT22;3606;52.930;8.644;2022-12-29T10:41:25;10.30;1.00
7129;DHT22;3606;52.930;8.644;2022-12-29T10:43:54;10.30;38.10
7129;DHT22;3606;52.930;8.644;2022-12-29T10:46:24;10.20;24.90
7129;DHT22;3606;52.930;8.644;2022-12-29T10:48:50;10.20;31.10
7129;DHT22;3606;52.930;8.644;2022-12-29T10:51:24;10.10;55.00
7129;DHT22;3606;52.930;8.644;2022-12-29T10:54:38;10.10;14.90
7129;DHT22;3606;52.930;8.644;2022-12-29T10:57:02;10.20;15.30
7129;DHT22;3606;52.930;8.644;2022-12-29T10:59:35;10.20;4.40
7129;DHT22;3606;52.930;8.644;2022-12-29T11:05:10;10.30;1.00
7129;DHT22;3606;52.930;8.644;2022-12-29T11:07:38;10.30;1.00
7129;DHT22;3606;52.930;8.644;2022-12-29T11:10:41;10.50;1.00
7129;DHT22;3606;52.930;8.644;2022-12-29T11:13:16;10.50;1.00
7129;DHT22;3606;52.930;8.644;2022-12-29T11:15:47;10.60;1.00
7129;DHT22;3606;52.930;8.644;2022-12-29T11:18:26;10.60;1.00
7129;DHT22;3606;52.930;8.644;2022-12-29T11:21:02;10.50;99.90
7129;DHT22;3606;52.930;8.644;2022-12-29T11:23:41;10.50;99.90
7129;DHT22;3606;52.930;8.644;2022-12-29T11:26:16;10.60;99.90
7129;DHT22;3606;52.930;8.644;2022-12-29T11:28:44;10.50;99.90
7129;DHT22;3606;52.930;8.644;2022-12-29T11:31:10;10.50;99.90
7129;DHT22;3606;52.930;8.644;2022-12-29T11:33:38;10.40;29.50
7129;DHT22;3606;52.930;8.644;2022-12-29T11:36:24;10.50;99.90
7129;DHT22;3606;52.930;8.644;2022-12-29T11:38:52;10.50;47.10
7129;DHT22;3606;52.930;8.644;2022-12-29T11:41:29;10.50;99.90
7129;DHT22;3606;52.930;8.644;2022-12-29T11:44:02;10.50;99.90
7129;DHT22;3606;52.930;8.644;2022-12-29T11:46:32;10.50;99.90
7129;DHT22;3606;52.930;8.644;2022-12-29T11:48:59;10.50;99.90
7129;DHT22;3606;52.930;8.644;2022-12-29T11:51:43;10.50;1.00
7129;DHT22;3606;52.930;8.644;2022-12-29T11:54:25;10.60;1.00
7129;DHT22;3606;52.930;8.644;2022-12-29T11:56:53;10.60;84.30
7129;DHT22;3606;52.930;8.644;2022-12-29T11:59:37;10.40;99.90
7129;DHT22;3606;52.930;8.644;2022-12-29T12:16:45;10.20;99.90
7129;DHT22;3606;52.930;8.644;2022-12-29T12:21:46;10.40;1.00
7129;DHT22;3606;52.930;8.644;2022-12-29T12:32:16;10.30;99.90
7129;DHT22;3606;52.930;8.644;2022-12-29T12:34:44;10.30;99.90
7129;DHT22;3606;52.930;8.644;2022-12-29T12:51:34;10.30;1.00
7129;DHT22;3606;52.930;8.644;2022-12-29T13:00:12;10.10;1.00
7129;DHT22;3606;52.930;8.644;2022-12-29T13:02:57;10.10;1.00
7129;DHT22;3606;52.930;8.644;2022-12-29T13:08:03;10.20;1.00
7129;DHT22;3606;52.930;8.644;2022-12-29T13:10:51;10.10;1.00
7129;DHT22;3606;52.930;8.644;2022-12-29T13:13:52;10.10;1.00
7129;DHT22;3606;52.930;8.644;2022-12-29T13:19:27;10.00;1.00
7129;DHT22;3606;52.930;8.644;2022-12-29T13:22:21;9.90;1.00
7129;DHT22;3606;52.930;8.644;2022-12-29T13:24:57;9.90;1.00
7129;DHT22;3606;52.930;8.644;2022-12-29T13:30:26;9.70;1.00
7129;DHT22;3606;52.930;8.644;2022-12-29T13:33:24;9.70;51.80
7129;DHT22;3606;52.930;8.644;2022-12-29T13:36:42;9.60;99.90
7129;DHT22;3606;52.930;8.644;2022-12-29T13:38:51;9.60;99.90
7129;DHT22;3606;52.930;8.644;2022-12-29T13:43:58;9.40;99.90
7129;DHT22;3606;52.930;8.644;2022-12-29T13:46:29;9.30;99.90
7129;DHT22;3606;52.930;8.644;2022-12-29T13:49:02;9.30;99.90
7129;DHT22;3606;52.930;8.644;2022-12-29T13:51:30;9.40;99.90
7129;DHT22;3606;52.930;8.644;2022-12-29T13:54:14;9.30;99.90
7129;DHT22;3606;52.930;8.644;2022-12-29T14:00:07;9.00;99.90
7129;DHT22;3606;52.930;8.644;2022-12-29T14:02:33;9.00;99.90
7129;DHT22;3606;52.930;8.644;2022-12-29T14:05:05;9.00;99.90
7129;DHT22;3606;52.930;8.644;2022-12-29T14:07:58;9.00;99.90
7129;DHT22;3606;52.930;8.644;2022-12-29T14:10:34;8.90;99.90
7129;DHT22;3606;52.930;8.644;2022-12-29T14:15:40;9.00;99.90
7129;DHT22;3606;52.930;8.644;2022-12-29T14:18:18;9.10;99.90
7129;DHT22;3606;52.930;8.644;2022-12-29T14:20:55;9.10;99.90
7129;DHT22;3606;52.930;8.644;2022-12-29T14:23:40;9.10;99.90
7129;DHT22;3606;52.930;8.644;2022-12-29T14:28:45;9.10;99.90
7129;DHT22;3606;52.930;8.644;2022-12-29T14:33:41;9.20;99.90
7129;DHT22;3606;52.930;8.644;2022-12-29T14:36:21;9.30;99.90
7129;DHT22;3606;52.930;8.644;2022-12-29T14:38:50;9.30;98.80
7129;DHT22;3606;52.930;8.644;2022-12-29T14:41:35;9.20;90.60
7129;DHT22;3606;52.930;8.644;2022-12-29T14:44:26;9.20;99.90
7129;DHT22;3606;52.930;8.644;2022-12-29T14:49:27;9.20;77.20
7129;DHT22;3606;52.930;8.644;2022-12-29T14:52:03;9.20;49.60
7129;DHT22;3606;52.930;8.644;2022-12-29T14:54:42;9.20;2.30
7129;DHT22;3606;52.930;8.644;2022-12-29T14:57:18;9.30;1.00
7129;DHT22;3606;52.930;8.644;2022-12-29T14:59:44;9.30;1.00
7129;DHT22;3606;52.930;8.644;2022-12-29T15:02:16;9.30;1.00
7129;DHT22;3606;52.930;8.644;2022-12-29T15:04:44;9.30;1.00
7129;DHT22;3606;52.930;8.644;2022-12-29T15:07:11;9.40;1.00
7129;DHT22;3606;52.930;8.644;2022-12-29T15:10:04;9.30;1.00
7129;DHT22;3606;52.930;8.644;2022-12-29T15:12:45;9.20;1.00
7129;DHT22;3606;52.930;8.644;2022-12-29T15:15:24;9.20;1.00
7129;DHT22;3606;52.930;8.644;2022-12-29T15:17:51;9.10;1.00
7129;DHT22;3606;52.930;8.644;2022-12-29T15:22:53;9.00;1.00
7129;DHT22;3606;52.930;8.644;2022-12-29T15:25:19;8.90;1.00
7129;DHT22;3606;52.930;8.644;2022-12-29T15:27:57;9.00;1.00
7129;DHT22;3606;52.930;8.644;2022-12-29T15:30:25;8.90;1.00
7129;DHT22;3606;52.930;8.644;2022-12-29T15:32:51;8.90;41.00
7129;DHT22;3606;52.930;8.644;2022-12-29T15:35:50;8.80;60.10
7129;DHT22;3606;52.930;8.644;2022-12-29T15:38:24;8.60;96.60
7129;DHT22;3606;52.930;8.644;2022-12-29T15:41:00;8.50;99.90
7129;DHT22;3606;52.930;8.644;2022-12-29T15:43:41;8.40;99.90
7129;DHT22;3606;52.930;8.644;2022-12-29T15:46:12;8.30;99.90
7129;DHT22;3606;52.930;8.644;2022-12-29T15:48:38;8.20;99.90
7129;DHT22;3606;52.930;8.644;2022-12-29T15:51:21;8.20;99.90
7129;DHT22;3606;52.930;8.644;2022-12-29T15:53:50;8.30;99.90
7129;DHT22;3606;52.930;8.644;2022-12-29T15:56:16;8.40;99.90
7129;DHT22;3606;52.930;8.644;2022-12-29T15:58:45;8.50;99.90
7129;DHT22;3606;52.930;8.644;2022-12-29T16:01:32;8.50;99.90
7129;DHT22;3606;52.930;8.644;2022-12-29T16:04:00;8.60;99.90
7129;DHT22;3606;52.930;8.644;2022-12-29T16:06:37;8.60;87.50
7129;DHT22;3606;52.930;8.644;2022-12-29T16:09:28;8.70;53.00
7129;DHT22;3606;52.930;8.644;2022-12-29T16:11:57;8.60;30.40
7129;DHT22;3606;52.930;8.644;2022-12-29T16:14:32;8.70;12.50
7129;DHT22;3606;52.930;8.644;2022-12-29T16:17:01;8.70;1.00
7129;DHT22;3606;52.930;8.644;2022-12-29T16:19:33;8.70;24.50
7129;DHT22;3606;52.930;8.644;2022-12-29T16:22:02;8.80;1.00
7129;DHT22;3606;52.930;8.644;2022-12-29T16:24:32;8.80;1.00
7129;DHT22;3606;52.930;8.644;2022-12-29T16:29:32;8.80;13.00
7129;DHT22;3606;52.930;8.644;2022-12-29T16:31:59;8.80;26.00
7129;DHT22;3606;52.930;8.644;2022-12-29T16:39:47;8.80;29.00
7129;DHT22;3606;52.930;8.644;2022-12-29T16:50:33;8.70;42.40
7129;DHT22;3606;52.930;8.644;2022-12-29T16:52:59;8.70;45.00
7129;DHT22;3606;52.930;8.644;2022-12-29T16:55:25;8.80;65.80
7129;DHT22;3606;52.930;8.644;2022-12-29T16:57:52;8.80;49.40
7129;DHT22;3606;52.930;8.644;2022-12-29T17:00:23;8.80;46.40
7129;DHT22;3606;52.930;8.644;2022-12-29T17:02:51;8.80;57.70
7129;DHT22;3606;52.930;8.644;2022-12-29T17:05:18;8.80;41.50
7129;DHT22;3606;52.930;8.644;2022-12-29T17:07:44;8.90;42.60
7129;DHT22;3606;52.930;8.644;2022-12-29T17:10:11;8.90;33.00
7129;DHT22;3606;52.930;8.644;2022-12-29T17:12:38;8.90;16.60
7129;DHT22;3606;52.930;8.644;2022-12-29T17:15:07;8.80;16.40
7129;DHT22;3606;52.930;8.644;2022-12-29T17:17:44;8.80;5.80
7129;DHT22;3606;52.930;8.644;2022-12-29T17:22:43;8.80;8.80
7129;DHT22;3606;52.930;8.644;2022-12-29T17:25:16;8.80;3.40
7129;DHT22;3606;52.930;8.644;2022-12-29T17:30:16;8.90;1.00
7129;DHT22;3606;52.930;8.644;2022-12-29T17:32:45;9.00;1.00
7129;DHT22;3606;52.930;8.644;2022-12-29T17:35:20;9.00;1.00
7129;DHT22;3606;52.930;8.644;2022-12-29T17:37:46;9.00;1.00
7129;DHT22;3606;52.930;8.644;2022-12-29T17:40:28;9.00;1.00
7129;DHT22;3606;52.930;8.644;2022-12-29T17:42:56;9.20;1.00
7129;DHT22;3606;52.930;8.644;2022-12-29T17:45:27;9.20;1.00
7129;DHT22;3606;52.930;8.644;2022-12-29T17:47:53;9.30;1.00
7129;DHT22;3606;52.930;8.644;2022-12-29T17:50:21;9.30;1.00
7129;DHT22;3606;52.930;8.644;2022-12-29T17:52:51;9.30;1.00
7129;DHT22;3606;52.930;8.644;2022-12-29T17:55:20;9.30;1.00
7129;DHT22;3606;52.930;8.644;2022-12-29T17:57:46;9.30;1.00
7129;DHT22;3606;52.930;8.644;2022-12-29T18:00:26;9.20;1.00
7129;DHT22;3606;52.930;8.644;2022-12-29T18:02:53;9.30;1.00
7129;DHT22;3606;52.930;8.644;2022-12-29T18:05:23;9.30;1.00
7129;DHT22;3606;52.930;8.644;2022-12-29T18:07:54;9.30;1.00
7129;DHT22;3606;52.930;8.644;2022-12-29T18:10:21;9.20;1.00
7129;DHT22;3606;52.930;8.644;2022-12-29T18:12:49;9.10;1.00
7129;DHT22;3606;52.930;8.644;2022-12-29T18:15:31;8.90;1.00
7129;DHT22;3606;52.930;8.644;2022-12-29T18:18:11;8.80;1.00
7129;DHT22;3606;52.930;8.644;2022-12-29T18:20:37;8.70;8.40
7129;DHT22;3606;52.930;8.644;2022-12-29T18:23:03;8.60;59.50
7129;DHT22;3606;52.930;8.644;2022-12-29T18:25:51;8.50;99.90
7129;DHT22;3606;52.930;8.644;2022-12-29T18:28:17;8.40;99.90
7129;DHT22;3606;52.930;8.644;2022-12-29T18:30:43;8.30;99.90
7129;DHT22;3606;52.930;8.644;2022-12-29T18:33:17;8.30;99.90
7129;DHT22;3606;52.930;8.644;2022-12-29T18:35:55;8.30;99.90
7129;DHT22;3606;52.930;8.644;2022-12-29T18:38:21;8.20;99.90
7129;DHT22;3606;52.930;8.644;2022-12-29T18:40:47;8.30;99.90
7129;DHT22;3606;52.930;8.644;2022-12-29T18:43:14;8.30;99.90
7129;DHT22;3606;52.930;8.644;2022-12-29T18:45:40;8.30;99.90
7129;DHT22;3606;52.930;8.644;2022-12-29T18:48:06;8.30;99.90
7129;DHT22;3606;52.930;8.644;2022-12-29T18:50:32;8.30;99.90
7129;DHT22;3606;52.930;8.644;2022-12-29T18:52:58;8.30;99.90
7129;DHT22;3606;52.930;8.644;2022-12-29T18:55:26;8.30;99.90